Time;durP1;ratioP1;P1;durP2;ratioP2;P2;SDS_P1;SDS_P2;PMS_P1;PMS_P2;Temp;Humidity;BMP_temperature;BMP_pressure;BME280_temperature;BME280_humidity;BME280_pressure;Samples;Min_cycle;Max_cycle;Signal;HPM_P1;HPM_P2
2023/06/13 00:00:33;;;;;;;5.60;2.30;;;14.90;76.90;;;;;;5090087;28;20649;-73
2023/06/13 00:03:00;;;;;;;4.10;2.13;;;14.80;76.50;;;;;;5090097;28;20470;-74
2023/06/13 00:05:26;;;;;;;6.57;2.47;;;14.80;76.60;;;;;;5076227;28;20667;-74
2023/06/13 00:07:52;;;;;;;4.90;2.10;;;14.80;76.80;;;;;;5090368;28;20437;-74
2023/06/13 00:10:17;;;;;;;5.43;2.30;;;14.70;77.00;;;;;;5089583;28;20445;-74
2023/06/13 00:12:44;;;;;;;5.70;2.77;;;14.70;77.30;;;;;;5086602;28;20204;-74
2023/06/13 00:15:11;;;;;;;5.90;2.13;;;14.70;77.50;;;;;;5074751;28;20205;-74
2023/06/13 00:17:38;;;;;;;4.40;2.17;;;14.60;77.30;;;;;;5085167;28;20532;-74
2023/06/13 00:20:05;;;;;;;4.17;1.87;;;14.60;77.90;;;;;;5083529;28;20415;-74
2023/06/13 00:22:31;;;;;;;4.53;2.60;;;14.50;78.00;;;;;;5089868;28;20414;-74
2023/06/13 00:24:56;;;;;;;4.60;1.70;;;14.50;78.30;;;;;;5084369;28;20434;-74
2023/06/13 00:27:22;;;;;;;5.13;2.60;;;14.50;78.30;;;;;;5090935;28;20191;-74
2023/06/13 00:29:48;;;;;;;5.43;2.33;;;14.50;77.70;;;;;;5092199;28;20639;-74
2023/06/13 00:32:13;;;;;;;2.80;1.80;;;14.40;78.40;;;;;;5081262;28;20204;-73
2023/06/13 00:34:40;;;;;;;3.10;1.77;;;14.40;78.70;;;;;;5093438;28;20518;-74
2023/06/13 00:37:09;;;;;;;4.37;2.40;;;14.40;78.90;;;;;;5085520;28;20189;-74
2023/06/13 00:39:37;;;;;;;6.67;2.50;;;14.30;78.40;;;;;;5087948;28;20425;-74
2023/06/13 00:42:03;;;;;;;4.10;1.73;;;14.30;78.20;;;;;;5093010;28;20426;-74
2023/06/13 00:44:29;;;;;;;4.40;2.30;;;14.30;78.70;;;;;;5088984;28;20427;-74
2023/06/13 00:46:56;;;;;;;4.33;2.07;;;14.30;79.20;;;;;;5083752;28;20181;-74
2023/06/13 00:49:21;;;;;;;4.50;2.43;;;14.30;79.40;;;;;;5082169;28;20593;-74
2023/06/13 00:51:48;;;;;;;3.93;1.90;;;14.20;79.60;;;;;;5093725;28;20468;-74
2023/06/13 00:54:14;;;;;;;5.10;2.27;;;14.10;79.80;;;;;;5090920;28;20267;-74
2023/06/13 00:56:41;;;;;;;5.10;2.50;;;14.10;80.00;;;;;;5084192;28;20510;-74
2023/06/13 00:59:08;;;;;;;4.10;2.23;;;14.00;80.00;;;;;;5094306;28;20185;-74
2023/06/13 01:01:36;;;;;;;5.47;2.40;;;14.00;80.20;;;;;;5094040;28;20419;-73
2023/06/13 01:04:03;;;;;;;3.83;2.23;;;14.00;80.80;;;;;;5093601;28;20410;-73
2023/06/13 01:06:30;;;;;;;6.53;2.87;;;14.00;80.80;;;;;;5092032;28;20433;-74
2023/06/13 01:08:58;;;;;;;4.63;2.70;;;13.90;81.80;;;;;;5078907;28;20439;-74
2023/06/13 01:12:06;;;;;;;3.57;2.20;;;13.80;81.20;;;;;;5085663;28;20833;-74
2023/06/13 01:14:56;;;;;;;4.43;2.40;;;13.70;81.50;;;;;;5056563;28;20511;-74
2023/06/13 01:17:27;;;;;;;5.73;2.67;;;13.70;82.00;;;;;;5089048;28;20415;-74
2023/06/13 01:19:57;;;;;;;5.37;2.73;;;13.70;82.30;;;;;;5078976;28;20455;-74
2023/06/13 01:22:31;;;;;;;5.17;2.10;;;13.70;82.20;;;;;;5092514;28;20460;-74
2023/06/13 01:25:22;;;;;;;4.30;1.90;;;13.60;82.30;;;;;;5086400;28;20424;-73
2023/06/13 01:27:54;;;;;;;18.33;2.30;;;13.50;82.50;;;;;;5072100;28;20443;-74
2023/06/13 01:30:20;;;;;;;6.20;2.60;;;13.50;82.80;;;;;;5065559;28;20756;-74
2023/06/13 01:32:48;;;;;;;4.20;2.37;;;13.50;83.10;;;;;;5078541;28;20458;-74
2023/06/13 01:35:14;;;;;;;4.10;2.10;;;13.50;83.00;;;;;;5078751;28;20434;-74
2023/06/13 01:37:40;;;;;;;4.17;2.13;;;13.40;83.70;;;;;;5092110;28;20402;-74
2023/06/13 01:40:09;;;;;;;11.00;3.23;;;13.40;83.30;;;;;;5091556;28;20421;-74
2023/06/13 01:42:35;;;;;;;5.97;2.30;;;13.30;83.60;;;;;;5091413;28;20989;-74
2023/06/13 01:45:02;;;;;;;4.83;2.47;;;13.30;84.50;;;;;;5089783;28;20510;-74
2023/06/13 01:47:41;;;;;;;3.30;1.60;;;13.20;84.80;;;;;;5077897;28;20268;-74
2023/06/13 01:50:20;;;;;;;4.33;2.23;;;13.10;85.30;;;;;;5081271;28;20442;-73
2023/06/13 01:53:20;;;;;;;4.97;2.70;;;13.00;85.60;;;;;;5091610;28;20450;-74
2023/06/13 01:56:19;;;;;;;4.57;2.27;;;12.90;85.80;;;;;;5074320;28;20495;-74
2023/06/13 01:58:54;;;;;;;5.17;2.10;;;12.90;86.60;;;;;;5073819;28;20429;-74
2023/06/13 02:01:20;;;;;;;11.73;4.00;;;12.90;87.00;;;;;;5091925;28;20412;-74
2023/06/13 02:03:46;;;;;;;7.43;2.63;;;12.80;86.80;;;;;;5091489;28;20417;-74
2023/06/13 02:06:12;;;;;;;4.00;1.90;;;12.80;86.90;;;;;;5091569;28;20418;-74
2023/06/13 02:08:38;;;;;;;4.20;2.40;;;12.70;87.20;;;;;;5091945;28;20184;-74
2023/06/13 02:11:03;;;;;;;6.97;2.30;;;12.70;88.30;;;;;;5091304;28;20180;-73
2023/06/13 02:13:29;;;;;;;2.83;1.80;;;12.70;87.50;;;;;;5076950;28;20470;-74
2023/06/13 02:15:54;;;;;;;4.67;1.90;;;12.60;88.10;;;;;;5082701;28;20283;-74
2023/06/13 02:18:20;;;;;;;3.73;1.77;;;12.50;88.30;;;;;;5086891;28;20625;-74
2023/06/13 02:20:46;;;;;;;3.40;2.10;;;12.40;88.20;;;;;;5089921;28;20184;-73
2023/06/13 02:23:12;;;;;;;5.80;2.33;;;12.40;88.70;;;;;;5087901;28;20192;-74
2023/06/13 02:25:38;;;;;;;4.73;1.93;;;12.30;89.40;;;;;;5091146;28;20699;-74
2023/06/13 02:28:04;;;;;;;5.67;2.90;;;12.30;89.70;;;;;;5090065;28;20428;-74
2023/06/13 02:30:29;;;;;;;2.70;1.50;;;12.20;90.00;;;;;;5079051;28;20745;-74
2023/06/13 02:32:55;;;;;;;12.83;2.67;;;12.10;90.20;;;;;;5090925;28;20725;-74
2023/06/13 02:35:23;;;;;;;8.90;2.20;;;12.10;90.70;;;;;;5091205;28;20188;-73
2023/06/13 02:37:56;;;;;;;4.40;2.63;;;12.00;90.60;;;;;;5078122;28;20197;-74
2023/06/13 02:40:23;;;;;;;5.80;2.57;;;11.90;90.60;;;;;;5090767;28;20520;-74
2023/06/13 02:42:52;;;;;;;3.80;2.17;;;11.90;91.10;;;;;;5074227;28;20438;-74
2023/06/13 02:45:19;;;;;;;6.97;2.90;;;11.80;91.20;;;;;;5081117;28;20475;-74
2023/06/13 02:47:44;;;;;;;2.60;1.87;;;11.80;91.40;;;;;;5076869;28;20497;-74
2023/06/13 02:50:10;;;;;;;5.97;2.70;;;11.70;91.60;;;;;;5082160;28;20534;-74
2023/06/13 02:52:37;;;;;;;5.20;2.97;;;11.70;92.00;;;;;;5087086;28;20193;-74
2023/06/13 02:55:04;;;;;;;5.60;2.47;;;11.60;92.20;;;;;;5080714;28;20429;-74
2023/06/13 02:57:30;;;;;;;4.00;2.37;;;11.60;92.60;;;;;;5090851;28;20529;-74
2023/06/13 02:59:56;;;;;;;4.93;2.30;;;11.60;92.60;;;;;;5090674;28;20609;-74
2023/06/13 03:02:25;;;;;;;4.80;2.47;;;11.60;92.80;;;;;;5073570;28;20192;-76
2023/06/13 03:04:52;;;;;;;5.80;2.40;;;11.60;92.70;;;;;;5082268;28;20430;-74
2023/06/13 03:07:18;;;;;;;7.80;2.80;;;11.60;92.60;;;;;;5086690;28;20772;-74
2023/06/13 03:09:43;;;;;;;3.23;2.13;;;11.60;92.80;;;;;;5080770;28;20414;-74
2023/06/13 03:12:11;;;;;;;5.83;2.37;;;11.60;93.10;;;;;;5090213;28;20991;-74
2023/06/13 03:14:38;;;;;;;4.20;2.50;;;11.60;93.20;;;;;;5076627;28;20624;-74
2023/06/13 03:17:04;;;;;;;7.80;2.43;;;11.60;93.50;;;;;;5070741;28;20496;-74
2023/06/13 03:19:30;;;;;;;9.50;2.43;;;11.60;93.60;;;;;;5082564;28;20418;-74
2023/06/13 03:21:57;;;;;;;5.13;2.23;;;11.70;93.50;;;;;;5090186;28;20421;-74
2023/06/13 03:24:22;;;;;;;4.10;2.10;;;11.80;93.30;;;;;;5090472;28;20180;-74
2023/06/13 03:26:48;;;;;;;6.03;3.03;;;11.80;93.20;;;;;;5090848;28;20973;-74
2023/06/13 03:29:14;;;;;;;5.10;2.80;;;11.80;93.60;;;;;;5079230;28;20180;-74
2023/06/13 03:31:39;;;;;;;5.20;3.00;;;11.80;93.50;;;;;;5088462;28;20559;-74
2023/06/13 03:34:05;;;;;;;4.30;2.27;;;11.90;93.30;;;;;;5090732;28;20269;-74
2023/06/13 03:36:34;;;;;;;4.50;2.43;;;11.90;93.60;;;;;;5090625;28;20219;-74
2023/06/13 03:39:00;;;;;;;6.53;2.80;;;11.90;93.30;;;;;;5090202;28;20428;-74
2023/06/13 03:41:26;;;;;;;6.73;3.13;;;11.90;93.20;;;;;;5085659;28;20419;-74
2023/06/13 03:43:52;;;;;;;2.47;1.57;;;11.80;93.50;;;;;;5070147;28;21322;-74
2023/06/13 03:46:17;;;;;;;3.93;1.53;;;11.80;93.70;;;;;;5076001;28;20181;-74
2023/06/13 03:48:43;;;;;;;4.83;2.83;;;11.70;93.80;;;;;;5070655;28;20673;-74
2023/06/13 03:51:08;;;;;;;4.67;2.47;;;11.70;94.00;;;;;;5067997;28;20193;-74
2023/06/13 03:53:34;;;;;;;3.33;2.17;;;11.70;94.30;;;;;;5069005;28;20208;-74
2023/06/13 03:56:00;;;;;;;3.63;1.73;;;11.60;94.40;;;;;;5073139;28;20184;-74
2023/06/13 03:58:26;;;;;;;5.73;2.87;;;11.60;94.60;;;;;;5082098;28;20177;-74
2023/06/13 04:00:54;;;;;;;4.53;2.33;;;11.70;94.90;;;;;;5090684;28;20436;-74
2023/06/13 04:03:19;;;;;;;6.07;2.57;;;11.60;95.00;;;;;;5094630;28;20271;-74
2023/06/13 04:05:45;;;;;;;4.37;2.10;;;11.60;94.80;;;;;;5094562;28;20837;-74
2023/06/13 04:08:11;;;;;;;6.20;2.63;;;11.60;95.10;;;;;;5083212;28;20185;-74
2023/06/13 04:10:37;;;;;;;10.30;2.73;;;11.60;95.50;;;;;;5092261;28;20648;-74
2023/06/13 04:13:03;;;;;;;5.87;3.00;;;11.60;95.20;;;;;;5088012;28;20227;-74
2023/06/13 04:15:29;;;;;;;4.60;2.40;;;11.60;95.50;;;;;;5079029;28;20252;-74
2023/06/13 04:17:55;;;;;;;5.93;2.77;;;11.60;96.20;;;;;;5085795;28;20180;-74
2023/06/13 04:20:24;;;;;;;4.70;1.90;;;11.60;96.40;;;;;;5089024;28;20513;-74
2023/06/13 04:22:51;;;;;;;3.70;2.50;;;11.70;96.40;;;;;;5084047;28;20181;-74
2023/06/13 04:25:17;;;;;;;7.63;2.50;;;11.80;96.70;;;;;;5092133;28;20451;-74
2023/06/13 04:27:44;;;;;;;3.87;2.30;;;11.90;96.10;;;;;;5078255;28;20531;-74
2023/06/13 04:30:11;;;;;;;4.50;2.40;;;11.90;95.60;;;;;;5074060;28;20254;-74
2023/06/13 04:32:37;;;;;;;4.67;2.60;;;12.00;95.20;;;;;;5070961;28;20576;-74
2023/06/13 04:35:03;;;;;;;4.50;2.27;;;12.10;95.60;;;;;;5075271;28;20416;-74
2023/06/13 04:37:30;;;;;;;23.23;2.40;;;12.30;95.80;;;;;;5073298;28;20415;-74
2023/06/13 04:39:57;;;;;;;5.63;2.50;;;12.30;95.60;;;;;;5092116;28;20895;-74
2023/06/13 04:42:29;;;;;;;3.23;2.10;;;12.30;95.70;;;;;;5093263;28;21005;-74
2023/06/13 04:44:58;;;;;;;3.17;2.00;;;12.40;95.90;;;;;;5091782;28;20423;-74
2023/06/13 04:47:24;;;;;;;4.20;1.90;;;12.60;95.80;;;;;;5068708;28;20434;-74
2023/06/13 04:49:58;;;;;;;4.13;2.23;;;12.60;95.80;;;;;;5068852;28;20444;-74
2023/06/13 04:52:27;;;;;;;3.40;1.90;;;12.70;95.20;;;;;;5077408;28;20463;-74
2023/06/13 04:54:54;;;;;;;5.80;1.77;;;12.80;95.40;;;;;;5077026;28;20708;-74
2023/06/13 04:57:20;;;;;;;3.10;1.90;;;12.80;95.10;;;;;;5075127;28;20761;-74
2023/06/13 04:59:46;;;;;;;4.33;2.07;;;12.90;94.60;;;;;;5074045;28;20423;-74
2023/06/13 05:02:12;;;;;;;3.50;1.70;;;13.10;94.40;;;;;;5077548;28;20435;-74
2023/06/13 05:04:39;;;;;;;3.50;1.83;;;13.10;94.20;;;;;;5082383;28;20478;-74
2023/06/13 05:07:06;;;;;;;3.50;2.07;;;13.20;94.50;;;;;;5092804;28;20180;-74
2023/06/13 05:09:32;;;;;;;3.40;1.63;;;13.40;93.60;;;;;;5093018;28;20410;-74
2023/06/13 05:11:58;;;;;;;2.43;1.70;;;13.50;93.10;;;;;;5091231;28;20473;-74
2023/06/13 05:14:23;;;;;;;2.73;1.50;;;13.60;92.00;;;;;;5079792;28;20418;-74
2023/06/13 05:16:49;;;;;;;6.80;2.07;;;13.60;92.40;;;;;;5074416;28;20186;-74
2023/06/13 05:19:15;;;;;;;5.60;2.53;;;13.70;92.10;;;;;;5093065;28;20180;-74
2023/06/13 05:21:40;;;;;;;10.87;1.97;;;13.70;92.00;;;;;;5091850;28;20206;-74
2023/06/13 05:24:09;;;;;;;7.53;2.50;;;13.80;91.40;;;;;;5089453;28;20467;-73
2023/06/13 05:26:35;;;;;;;4.57;2.30;;;13.90;91.20;;;;;;5079370;28;20527;-73
2023/06/13 05:29:04;;;;;;;4.03;1.80;;;14.00;91.50;;;;;;5083731;28;20426;-74
2023/06/13 05:31:31;;;;;;;3.33;1.80;;;14.10;90.70;;;;;;5088093;28;20422;-74
2023/06/13 05:33:56;;;;;;;3.10;1.87;;;14.20;91.00;;;;;;5092481;28;20458;-73
2023/06/13 05:36:22;;;;;;;3.60;1.60;;;14.20;90.90;;;;;;5092225;28;20449;-74
2023/06/13 05:38:48;;;;;;;8.70;1.90;;;14.20;90.20;;;;;;5068475;28;20918;-74
2023/06/13 05:41:14;;;;;;;4.13;2.00;;;14.20;90.20;;;;;;5072060;28;20237;-72
2023/06/13 05:43:40;;;;;;;3.10;1.47;;;14.40;89.90;;;;;;5070987;28;20185;-73
2023/06/13 05:46:05;;;;;;;3.17;1.90;;;14.40;89.00;;;;;;5066866;28;20272;-72
2023/06/13 05:48:31;;;;;;;3.57;1.50;;;14.50;88.60;;;;;;5074589;28;20423;-73
2023/06/13 05:50:58;;;;;;;2.70;1.47;;;14.60;88.80;;;;;;5065286;28;20189;-73
2023/06/13 05:53:23;;;;;;;4.07;1.50;;;14.70;88.80;;;;;;5066275;28;20249;-72
2023/06/13 05:55:49;;;;;;;4.03;1.93;;;14.70;86.90;;;;;;5074875;28;20458;-73
2023/06/13 05:58:15;;;;;;;5.00;1.80;;;14.80;86.70;;;;;;5082270;28;20471;-73
2023/06/13 06:00:40;;;;;;;4.00;1.70;;;14.90;85.60;;;;;;5087162;28;20205;-73
2023/06/13 06:03:06;;;;;;;7.87;1.50;;;15.00;84.50;;;;;;5080193;28;20187;-73
2023/06/13 06:05:32;;;;;;;3.33;1.60;;;15.10;84.30;;;;;;5090414;28;20195;-73
2023/06/13 06:07:57;;;;;;;2.30;1.37;;;15.10;84.70;;;;;;5090117;28;20196;-72
2023/06/13 06:10:23;;;;;;;4.23;1.60;;;15.20;83.20;;;;;;5076091;28;20180;-72
2023/06/13 06:12:49;;;;;;;5.80;1.97;;;15.30;81.40;;;;;;5074575;28;20189;-73
2023/06/13 06:15:14;;;;;;;2.33;1.30;;;15.40;81.10;;;;;;5067940;28;20176;-72
2023/06/13 06:17:40;;;;;;;2.53;1.40;;;15.50;78.00;;;;;;5067438;28;20208;-73
2023/06/13 06:20:06;;;;;;;2.63;1.40;;;15.60;79.10;;;;;;5072535;28;20688;-71
2023/06/13 06:22:32;;;;;;;5.00;2.10;;;15.70;76.20;;;;;;5064720;28;20385;-72
2023/06/13 06:24:58;;;;;;;2.53;1.60;;;15.70;77.60;;;;;;5069570;28;20425;-72
2023/06/13 06:27:23;;;;;;;3.97;1.63;;;15.80;76.90;;;;;;5077167;28;20428;-73
2023/06/13 06:29:49;;;;;;;4.03;1.90;;;15.90;75.30;;;;;;5070730;28;20173;-73
2023/06/13 06:32:14;;;;;;;3.93;2.00;;;15.90;75.10;;;;;;5065401;28;20440;-73
2023/06/13 06:34:40;;;;;;;2.33;1.07;;;16.00;73.70;;;;;;5071553;28;20168;-73
2023/06/13 06:37:07;;;;;;;2.97;1.47;;;16.10;75.30;;;;;;5073063;28;20177;-72
2023/06/13 06:39:34;;;;;;;3.40;1.50;;;16.20;73.40;;;;;;5086215;28;20183;-73
2023/06/13 06:41:59;;;;;;;3.47;1.63;;;16.40;72.90;;;;;;5079617;28;20412;-73
2023/06/13 06:44:25;;;;;;;3.20;1.50;;;16.40;71.80;;;;;;5085411;28;20421;-73
2023/06/13 06:46:51;;;;;;;4.17;1.50;;;16.50;71.60;;;;;;5069211;28;20174;-73
2023/06/13 06:49:17;;;;;;;3.87;1.80;;;16.50;70.80;;;;;;5067986;28;20272;-73
2023/06/13 06:51:43;;;;;;;4.27;1.97;;;16.60;70.50;;;;;;5072427;28;20180;-71
2023/06/13 06:54:10;;;;;;;2.73;1.30;;;16.60;70.90;;;;;;5082514;28;20549;-73
2023/06/13 06:56:36;;;;;;;2.83;1.50;;;16.80;68.70;;;;;;5078278;28;20536;-74
2023/06/13 06:59:01;;;;;;;2.57;1.57;;;16.80;68.80;;;;;;5075365;28;20177;-73
2023/06/13 07:01:27;;;;;;;3.40;1.57;;;17.00;69.00;;;;;;5072485;28;20184;-73
2023/06/13 07:03:52;;;;;;;1.90;1.37;;;17.10;69.50;;;;;;5064143;28;20686;-73
2023/06/13 07:06:19;;;;;;;3.40;1.43;;;17.30;69.70;;;;;;5066322;28;20334;-73
2023/06/13 07:08:45;;;;;;;9.03;2.10;;;17.50;67.00;;;;;;5070674;28;20188;-72
2023/06/13 07:11:11;;;;;;;1.60;1.00;;;17.60;66.80;;;;;;5070090;28;20430;-74
2023/06/13 07:13:36;;;;;;;2.60;1.40;;;17.80;64.70;;;;;;5074956;28;20656;-74
2023/06/13 07:16:02;;;;;;;8.73;1.50;;;17.90;63.20;;;;;;5072775;28;20621;-73
2023/06/13 07:18:29;;;;;;;3.27;1.73;;;17.90;62.00;;;;;;5085371;28;20215;-74
2023/06/13 07:20:55;;;;;;;4.60;1.40;;;18.10;62.00;;;;;;5088746;28;20446;-73
2023/06/13 07:23:21;;;;;;;3.40;1.70;;;18.30;62.70;;;;;;5071639;28;20435;-73
2023/06/13 07:25:47;;;;;;;3.60;1.70;;;18.60;60.00;;;;;;5079183;28;20426;-74
2023/06/13 07:28:12;;;;;;;5.07;1.50;;;18.80;58.70;;;;;;5086097;28;20427;-73
2023/06/13 07:30:38;;;;;;;3.80;1.37;;;19.10;58.90;;;;;;5078903;28;20211;-74
2023/06/13 07:33:03;;;;;;;3.20;1.27;;;19.40;58.00;;;;;;5074870;28;20212;-74
2023/06/13 07:35:29;;;;;;;2.70;1.10;;;19.60;57.90;;;;;;5070092;28;20185;-72
2023/06/13 07:37:55;;;;;;;3.10;2.00;;;19.70;56.60;;;;;;5070628;28;20183;-71
2023/06/13 07:40:21;;;;;;;2.73;1.40;;;20.10;55.90;;;;;;5072760;28;20230;-72
2023/06/13 07:42:48;;;;;;;2.63;1.50;;;20.90;54.00;;;;;;5073182;28;20271;-72
2023/06/13 07:45:14;;;;;;;3.10;1.30;;;21.20;53.60;;;;;;5080588;28;20467;-73
2023/06/13 07:47:40;;;;;;;2.80;1.67;;;21.60;54.60;;;;;;5075191;28;20415;-71
2023/06/13 07:50:06;;;;;;;3.87;1.73;;;21.40;52.80;;;;;;5075273;28;20288;-70
2023/06/13 07:52:32;;;;;;;8.03;1.67;;;21.50;52.50;;;;;;5088408;28;20274;-71
2023/06/13 07:54:57;;;;;;;5.00;1.50;;;22.40;52.00;;;;;;5084419;28;20505;-71
2023/06/13 07:57:23;;;;;;;3.37;1.80;;;22.70;51.10;;;;;;5086616;28;20222;-71
2023/06/13 07:59:49;;;;;;;2.27;1.27;;;22.20;51.80;;;;;;5071942;28;20181;-73
2023/06/13 08:02:15;;;;;;;3.37;1.70;;;23.00;51.00;;;;;;5087510;28;20176;-70
2023/06/13 08:04:40;;;;;;;3.67;1.77;;;23.70;51.70;;;;;;5094589;28;20188;-73
2023/06/13 08:07:06;;;;;;;5.05;2.42;;;23.60;51.00;;;;;;5093962;28;20232;-73
2023/06/13 08:09:32;;;;;;;6.50;2.03;;;23.70;50.90;;;;;;5093897;28;20191;-73
2023/06/13 08:11:58;;;;;;;2.90;1.75;;;23.80;50.20;;;;;;5080031;28;20192;-71
2023/06/13 08:14:24;;;;;;;31.70;2.22;;;24.10;49.00;;;;;;5081855;28;20176;-74
2023/06/13 08:16:50;;;;;;;10.40;2.28;;;23.40;49.10;;;;;;5075839;28;20252;-73
2023/06/13 08:19:15;;;;;;;3.67;1.73;;;24.10;48.70;;;;;;5094158;28;20263;-72
2023/06/13 08:21:41;;;;;;;3.45;1.88;;;24.10;48.50;;;;;;5093114;28;20180;-72
2023/06/13 08:24:07;;;;;;;3.22;1.80;;;24.50;47.30;;;;;;5091041;28;20216;-73
2023/06/13 08:26:33;;;;;;;2.88;1.65;;;24.20;47.00;;;;;;5093864;28;20214;-73
2023/06/13 08:29:02;;;;;;;3.65;1.73;;;24.60;46.80;;;;;;5094001;28;20233;-73
2023/06/13 08:31:29;;;;;;;4.60;2.47;;;25.00;46.40;;;;;;5079658;28;20206;-74
2023/06/13 08:33:58;;;;;;;1.92;1.10;;;25.00;46.70;;;;;;5094261;28;20195;-73
2023/06/13 08:36:25;;;;;;;3.85;1.60;;;25.10;46.80;;;;;;5093555;28;20176;-72
2023/06/13 08:38:57;;;;;;;2.40;1.50;;;25.10;47.80;;;;;;5093590;28;20221;-73
2023/06/13 08:41:25;;;;;;;2.63;1.50;;;25.30;46.30;;;;;;5093931;28;20183;-73
2023/06/13 08:43:52;;;;;;;2.65;1.50;;;24.90;46.00;;;;;;5082118;28;20207;-73
2023/06/13 08:46:18;;;;;;;3.28;1.70;;;24.90;45.70;;;;;;5082042;28;20202;-74
2023/06/13 08:48:43;;;;;;;3.25;1.23;;;24.80;47.70;;;;;;5092402;28;20277;-76
2023/06/13 08:51:14;;;;;;;11.02;2.13;;;25.30;46.10;;;;;;5072538;28;20218;-73
2023/06/13 08:53:47;;;;;;;4.18;1.85;;;24.40;45.80;;;;;;5081486;28;20207;-73
2023/06/13 08:56:13;;;;;;;3.92;1.92;;;24.20;46.10;;;;;;5093451;28;20546;-73
2023/06/13 08:58:41;;;;;;;5.18;2.00;;;25.00;45.80;;;;;;5093633;28;20168;-73
2023/06/13 09:01:07;;;;;;;3.95;2.00;;;24.80;45.80;;;;;;5093277;28;20180;-73
2023/06/13 09:03:34;;;;;;;3.38;1.77;;;25.00;45.60;;;;;;5090032;28;20545;-72
2023/06/13 09:06:01;;;;;;;3.08;1.67;;;25.00;45.00;;;;;;5073986;28;20180;-77
2023/06/13 09:08:28;;;;;;;17.73;1.70;;;25.20;43.90;;;;;;5066272;28;20196;-74
2023/06/13 09:10:54;;;;;;;5.10;1.88;;;25.30;44.50;;;;;;5075157;28;20214;-75
2023/06/13 09:13:22;;;;;;;3.85;1.35;;;24.10;43.80;;;;;;5076032;28;20219;-74
2023/06/13 09:15:47;;;;;;;3.40;1.48;;;24.00;45.30;;;;;;5077974;28;20179;-74
2023/06/13 09:18:15;;;;;;;2.77;1.50;;;23.50;44.80;;;;;;5072486;28;20793;-73
2023/06/13 09:20:40;;;;;;;6.63;1.83;;;23.30;45.10;;;;;;5073493;28;20179;-72
2023/06/13 09:23:07;;;;;;;4.37;1.80;;;23.30;47.10;;;;;;5076818;28;20188;-73
2023/06/13 09:25:36;;;;;;;4.37;1.80;;;23.30;46.60;;;;;;5092532;28;20274;-72
2023/06/13 09:28:35;;;;;;;3.87;1.70;;;23.40;46.40;;;;;;5092685;28;20184;-73
2023/06/13 09:31:01;;;;;;;4.60;1.90;;;23.30;47.30;;;;;;5085382;28;20211;-72
2023/06/13 09:33:27;;;;;;;3.13;1.67;;;24.20;45.20;;;;;;5092361;28;20242;-72
2023/06/13 09:35:53;;;;;;;3.25;1.42;;;24.20;45.40;;;;;;5092975;28;20604;-73
2023/06/13 09:38:23;;;;;;;4.68;1.70;;;24.60;42.80;;;;;;5092492;28;20187;-73
2023/06/13 09:40:51;;;;;;;3.35;2.17;;;24.40;43.20;;;;;;5092564;28;20206;-72
2023/06/13 09:43:17;;;;;;;7.80;1.70;;;23.80;44.60;;;;;;5091744;28;20192;-71
2023/06/13 09:45:43;;;;;;;3.20;2.13;;;23.90;43.90;;;;;;5066780;28;20181;-74
2023/06/13 09:48:09;;;;;;;5.07;1.70;;;23.70;44.80;;;;;;5065866;28;20183;-71
2023/06/13 09:50:36;;;;;;;3.33;1.87;;;24.40;43.70;;;;;;5069997;28;20640;-72
2023/06/13 09:53:02;;;;;;;3.03;1.83;;;24.40;43.30;;;;;;5071353;28;20242;-72
2023/06/13 09:55:27;;;;;;;2.83;1.47;;;24.60;43.20;;;;;;5071560;28;20173;-71
2023/06/13 09:57:53;;;;;;;5.13;1.97;;;24.10;44.50;;;;;;5072166;28;20172;-71
2023/06/13 10:00:20;;;;;;;2.90;1.65;;;24.60;42.90;;;;;;5071481;28;20527;-71
2023/06/13 10:02:46;;;;;;;1.70;1.00;;;24.30;45.10;;;;;;5071598;28;20967;-71
2023/06/13 10:05:13;;;;;;;7.85;2.10;;;24.10;44.50;;;;;;5071682;28;20279;-71
2023/06/13 10:07:39;;;;;;;5.40;1.63;;;24.50;43.70;;;;;;5071387;28;20223;-71
2023/06/13 10:10:06;;;;;;;2.00;1.20;;;24.90;44.30;;;;;;5061395;28;20207;-71
2023/06/13 10:12:32;;;;;;;2.63;1.38;;;25.10;41.80;;;;;;5068230;28;20307;-71
2023/06/13 10:15:01;;;;;;;3.95;1.77;;;25.20;42.30;;;;;;5076307;28;20393;-70
2023/06/13 10:17:32;;;;;;;3.85;1.70;;;25.10;42.40;;;;;;5060072;28;20271;-73
2023/06/13 10:20:04;;;;;;;2.45;1.50;;;24.70;44.00;;;;;;5064355;28;20188;-71
2023/06/13 10:22:31;;;;;;;2.85;1.52;;;24.40;43.60;;;;;;5063367;28;20185;-70
2023/06/13 10:24:57;;;;;;;3.97;1.57;;;24.30;43.70;;;;;;5066159;28;20264;-71
2023/06/13 10:27:24;;;;;;;3.00;1.73;;;24.70;43.50;;;;;;5071160;28;20268;-72
2023/06/13 10:30:22;;;;;;;2.80;1.23;;;24.20;44.60;;;;;;5068288;28;20317;-70
2023/06/13 10:33:02;;;;;;;7.67;1.80;;;24.20;44.70;;;;;;5041102;28;20938;-71
2023/06/13 10:35:49;;;;;;;3.50;1.60;;;24.40;45.20;;;;;;5065834;28;20418;-71
2023/06/13 10:38:42;;;;;;;2.60;1.23;;;24.40;44.90;;;;;;5071019;28;20410;-71
2023/06/13 10:41:36;;;;;;;4.30;1.60;;;24.10;44.70;;;;;;5059581;28;20423;-71
2023/06/13 10:44:09;;;;;;;4.93;1.83;;;24.00;45.50;;;;;;5069887;28;21092;-71
2023/06/13 10:46:35;;;;;;;2.90;1.33;;;24.10;44.70;;;;;;5067898;28;20446;-70
2023/06/13 10:49:01;;;;;;;1.97;1.13;;;24.10;46.20;;;;;;5065418;28;20441;-69
2023/06/13 10:51:32;;;;;;;3.33;1.90;;;24.20;46.10;;;;;;5057709;28;20423;-70
2023/06/13 10:54:03;;;;;;;3.67;1.73;;;24.00;44.90;;;;;;5065256;28;20879;-71
2023/06/13 10:56:31;;;;;;;2.30;1.13;;;24.30;43.90;;;;;;5059812;28;20446;-70
2023/06/13 10:59:08;;;;;;;4.10;1.87;;;24.30;44.40;;;;;;5070289;28;20434;-70
2023/06/13 11:01:35;;;;;;;4.50;1.80;;;24.30;44.90;;;;;;5067510;28;20402;-71
2023/06/13 11:04:11;;;;;;;3.80;1.87;;;24.20;46.50;;;;;;5070737;28;20415;-70
2023/06/13 11:06:49;;;;;;;3.80;1.90;;;24.50;42.30;;;;;;5070834;28;20747;-72
2023/06/13 11:09:23;;;;;;;2.20;1.20;;;24.20;43.40;;;;;;5057083;28;20418;-70
2023/06/13 11:11:53;;;;;;;2.77;1.47;;;24.20;42.90;;;;;;5070217;28;20847;-70
2023/06/13 11:14:26;;;;;;;2.90;1.60;;;24.20;42.90;;;;;;5068919;28;20446;-70
2023/06/13 11:16:52;;;;;;;2.90;1.93;;;24.30;43.70;;;;;;5067273;28;20446;-73
2023/06/13 11:19:24;;;;;;;4.40;1.90;;;24.10;44.60;;;;;;5070694;28;20780;-75
2023/06/13 11:21:51;;;;;;;2.90;1.20;;;24.50;42.70;;;;;;5069951;28;20422;-73
2023/06/13 11:24:18;;;;;;;4.87;2.20;;;24.40;43.20;;;;;;5070309;28;20461;-74
2023/06/13 11:26:45;;;;;;;3.30;1.80;;;24.70;41.60;;;;;;5056990;28;20434;-70
2023/06/13 11:29:15;;;;;;;3.30;1.80;;;24.50;43.60;;;;;;5070577;28;21015;-75
2023/06/13 11:31:41;;;;;;;6.37;2.07;;;24.60;43.10;;;;;;5069916;28;20829;-75
2023/06/13 11:34:14;;;;;;;3.40;1.97;;;24.70;42.50;;;;;;5070521;28;20840;-76
2023/06/13 11:36:43;;;;;;;16.10;1.70;;;24.60;42.40;;;;;;5070320;28;20704;-72
2023/06/13 11:39:15;;;;;;;3.13;1.90;;;24.50;42.80;;;;;;5070034;28;20495;-74
2023/06/13 11:41:42;;;;;;;7.07;2.50;;;24.50;44.40;;;;;;5069859;28;20423;-74
2023/06/13 11:44:09;;;;;;;3.50;1.60;;;24.80;44.10;;;;;;5070640;28;20410;-72
2023/06/13 11:46:41;;;;;;;3.80;1.40;;;24.70;43.40;;;;;;5070517;28;20458;-73
2023/06/13 11:49:10;;;;;;;8.30;2.40;;;24.60;43.50;;;;;;5066776;28;20517;-73
2023/06/13 11:51:37;;;;;;;13.00;3.00;;;24.70;44.20;;;;;;5062076;28;20423;-73
2023/06/13 11:54:03;;;;;;;4.50;1.60;;;24.70;42.50;;;;;;5061287;28;20547;-73
2023/06/13 11:56:30;;;;;;;2.97;1.43;;;24.30;43.50;;;;;;5060226;28;20876;-73
2023/06/13 11:58:57;;;;;;;4.00;1.80;;;24.40;44.80;;;;;;5054047;28;20203;-73
2023/06/13 12:01:25;;;;;;;3.67;1.83;;;24.60;45.40;;;;;;5067169;28;20423;-74
2023/06/13 12:03:52;;;;;;;3.47;1.67;;;24.60;42.70;;;;;;5068630;28;20866;-73
2023/06/13 12:06:19;;;;;;;5.80;2.10;;;24.80;43.10;;;;;;5058965;28;20430;-74
2023/06/13 12:08:45;;;;;;;2.93;1.50;;;24.80;42.40;;;;;;5061883;28;20822;-70
2023/06/13 12:11:13;;;;;;;3.30;1.80;;;24.90;42.60;;;;;;5064167;28;20474;-73
2023/06/13 12:13:39;;;;;;;3.67;1.70;;;24.90;42.60;;;;;;5066476;28;20499;-74
2023/06/13 12:16:06;;;;;;;4.00;1.27;;;25.00;41.80;;;;;;5063594;28;20477;-74
2023/06/13 12:18:32;;;;;;;2.53;1.73;;;25.10;41.70;;;;;;5067026;28;20997;-74
2023/06/13 12:20:59;;;;;;;4.10;2.03;;;24.90;43.00;;;;;;5069618;28;20418;-73
2023/06/13 12:23:27;;;;;;;3.80;1.97;;;25.00;42.30;;;;;;5068139;28;20803;-74
2023/06/13 12:25:53;;;;;;;4.03;1.60;;;24.60;42.50;;;;;;5072163;28;20468;-74
2023/06/13 12:28:19;;;;;;;3.17;1.87;;;25.00;41.80;;;;;;5071908;28;20443;-74
2023/06/13 12:30:49;;;;;;;5.00;1.97;;;25.20;40.60;;;;;;5070331;28;20192;-74
2023/06/13 12:33:18;;;;;;;3.43;1.87;;;25.50;42.60;;;;;;5069681;28;20469;-73
2023/06/13 12:35:54;;;;;;;5.23;2.00;;;25.50;42.40;;;;;;5071254;28;20426;-72
2023/06/13 12:38:26;;;;;;;5.13;2.03;;;25.30;42.50;;;;;;5065042;28;20408;-74
2023/06/13 12:40:52;;;;;;;2.80;1.80;;;25.00;42.70;;;;;;5068455;28;20419;-73
2023/06/13 12:43:40;;;;;;;2.60;1.50;;;25.10;42.30;;;;;;5070394;28;20434;-74
2023/06/13 12:46:06;;;;;;;4.00;1.93;;;25.40;42.20;;;;;;5069279;28;20640;-74
2023/06/13 12:48:37;;;;;;;9.90;2.07;;;25.40;42.40;;;;;;5071565;28;20438;-74